MSC Magnifica — 3FLO4 — position and weather

sailwx.info

Track history (hours):
 
Tides and Currents Weather Stations Pressure Air Temp Water Temp Dewpoint Dewpoint Depression Visibility Wind Speed Wind Dir Waves Ship Positions

MSC Magnifica

Last reported at 2020-Mar-29 11:30 UTC. Time now 2020-Apr-02 22:48 UTC.
Position S 31°53' E 115°29'.

Length 294 m; draft 7.8 m.

Type: Passenger vessel. MMSI: 352594000.

Date/timePositionNaut miles runAvg speedWind from/ knotsBaromVisibWave heightAir tempDewpointWater temp
2020-Mar-29 11:30S 31°53' E 115°29'22 8.7
2020-Mar-29 09:00S 32°12' E 115°42'0 0.0
2020-Mar-29 03:30S 32°12' E 115°42'0 0.0
2020-Mar-29 02:30S 32°12' E 115°42'0 0.0
2020-Mar-29 00:00S 32°12' E 115°42'0 0.1
2020-Mar-28 23:30S 32°12' E 115°42'0 0.0
2020-Mar-28 21:00S 32°12' E 115°42'0 0.0
2020-Mar-28 19:30S 32°12' E 115°42'0 0.0
2020-Mar-28 15:30S 32°12' E 115°42'0 0.0
2020-Mar-28 12:30S 32°12' E 115°42'0 0.0
2020-Mar-28 12:00S 32°12' E 115°42'0 0.0
2020-Mar-28 11:30S 32°12' E 115°42'0 0.0
2020-Mar-28 08:27S 32°12' E 115°42'0 0.0
2020-Mar-28 06:30S 32°12' E 115°42'0 0.0
2020-Mar-28 06:00S 32°12' E 115°42'0 0.0
2020-Mar-28 03:00S 32°12' E 115°42'0 0.1
2020-Mar-28 02:30S 32°12' E 115°42'0 0.0
2020-Mar-28 02:00S 32°12' E 115°42'0 0.0
2020-Mar-28 01:00S 32°12' E 115°42'0 0.0
2020-Mar-27 22:30S 32°12' E 115°42'0 0.1
2020-Mar-27 21:30S 32°12' E 115°42'0 0.0
2020-Mar-27 17:00S 32°12' E 115°42'0 0.0
2020-Mar-27 16:30S 32°12' E 115°42'0 0.1
2020-Mar-27 16:00S 32°12' E 115°42'0 0.1
2020-Mar-27 15:00S 32°12' E 115°42'0 0.0
2020-Mar-27 13:30S 32°12' E 115°42'0 0.0
2020-Mar-27 12:30S 32°12' E 115°42'0 0.0
2020-Mar-27 12:00S 32°12' E 115°42'0 0.0
2020-Mar-27 10:30S 32°12' E 115°42'0 0.1
2020-Mar-27 10:00S 32°12' E 115°42'17 8.6
2020-Mar-27 08:00S 31°56' E 115°36'40 2.8
2020-Mar-26 17:41S 31°35' E 114°55'314.3
2020-Mar-26 17:29S 31°37' E 114°53'5 0.5
2020-Mar-26 06:55S 31°37' E 114°59'15 1.9
2020-Mar-25 23:00S 31°29' E 114°45'3212.7
2020-Mar-25 20:30S 30°60' E 114°30'38 7.5
2020-Mar-25 15:31S 31°37' E 114°33'49 1.9
2020-Mar-24 14:00S 31°49' E 115°29'815.5
2020-Mar-24 13:30S 31°54' E 115°35'815.3
2020-Mar-24 13:01S 31°60' E 115°42'4 1.4
2020-Mar-24 10:00S 32°03' E 115°45'0 0.0
2020-Mar-24 08:30S 32°03' E 115°45'0 0.0
2020-Mar-24 08:00S 32°03' E 115°45'0 0.0
2020-Mar-24 07:30S 32°03' E 115°45'0 0.0
2020-Mar-24 05:30S 32°03' E 115°45'0 0.0
2020-Mar-24 04:30S 32°03' E 115°45'0 0.0
2020-Mar-24 01:30S 32°03' E 115°45'0 0.0
2020-Mar-24 00:30S 32°03' E 115°45'0 0.0
2020-Mar-23 23:30S 32°03' E 115°45'3 1.3
2020-Mar-23 21:00S 32°01' E 115°42'14 9.6
2020-Mar-23 19:30S 31°56' E 115°26'7211.8
2020-Mar-23 13:22S 33°01' E 114°49'411.9
2020-Mar-23 13:00S 33°05' E 114°47'  
Track history (hours):
 
Tides and Currents Weather Stations Pressure Air Temp Water Temp Dewpoint Dewpoint Depression Visibility Wind Speed Wind Dir Waves Ship Positions

MSC Magnifica

Last reported at 2020-Mar-29 11:30 UTC. Time now 2020-Apr-02 22:48 UTC.
Position S 31°53' E 115°29'.

Length 294 m; draft 7.8 m.

Type: Passenger vessel. MMSI: 352594000.

Date/timePositionNaut miles runAvg speedWind from/ knotsBaromVisibWave heightAir tempDewpointWater temp
2020-Mar-29 11:30S 31°53' E 115°29'22 8.7
2020-Mar-29 09:00S 32°12' E 115°42'0 0.0
2020-Mar-29 03:30S 32°12' E 115°42'0 0.0
2020-Mar-29 02:30S 32°12' E 115°42'0 0.0
2020-Mar-29 00:00S 32°12' E 115°42'0 0.1
2020-Mar-28 23:30S 32°12' E 115°42'0 0.0
2020-Mar-28 21:00S 32°12' E 115°42'0 0.0
2020-Mar-28 19:30S 32°12' E 115°42'0 0.0
2020-Mar-28 15:30S 32°12' E 115°42'0 0.0
2020-Mar-28 12:30S 32°12' E 115°42'0 0.0
2020-Mar-28 12:00S 32°12' E 115°42'0 0.0
2020-Mar-28 11:30S 32°12' E 115°42'0 0.0
2020-Mar-28 08:27S 32°12' E 115°42'0 0.0
2020-Mar-28 06:30S 32°12' E 115°42'0 0.0
2020-Mar-28 06:00S 32°12' E 115°42'0 0.0
2020-Mar-28 03:00S 32°12' E 115°42'0 0.1
2020-Mar-28 02:30S 32°12' E 115°42'0 0.0
2020-Mar-28 02:00S 32°12' E 115°42'0 0.0
2020-Mar-28 01:00S 32°12' E 115°42'0 0.0
2020-Mar-27 22:30S 32°12' E 115°42'0 0.1
2020-Mar-27 21:30S 32°12' E 115°42'0 0.0
2020-Mar-27 17:00S 32°12' E 115°42'0 0.0
2020-Mar-27 16:30S 32°12' E 115°42'0 0.1
2020-Mar-27 16:00S 32°12' E 115°42'0 0.1
2020-Mar-27 15:00S 32°12' E 115°42'0 0.0
2020-Mar-27 13:30S 32°12' E 115°42'0 0.0
2020-Mar-27 12:30S 32°12' E 115°42'0 0.0
2020-Mar-27 12:00S 32°12' E 115°42'0 0.0
2020-Mar-27 10:30S 32°12' E 115°42'0 0.1
2020-Mar-27 10:00S 32°12' E 115°42'17 8.6
2020-Mar-27 08:00S 31°56' E 115°36'40 2.8
2020-Mar-26 17:41S 31°35' E 114°55'314.3
2020-Mar-26 17:29S 31°37' E 114°53'5 0.5
2020-Mar-26 06:55S 31°37' E 114°59'15 1.9
2020-Mar-25 23:00S 31°29' E 114°45'3212.7
2020-Mar-25 20:30S 30°60' E 114°30'38 7.5
2020-Mar-25 15:31S 31°37' E 114°33'49 1.9
2020-Mar-24 14:00S 31°49' E 115°29'815.5
2020-Mar-24 13:30S 31°54' E 115°35'815.3
2020-Mar-24 13:01S 31°60' E 115°42'4 1.4
2020-Mar-24 10:00S 32°03' E 115°45'0 0.0
2020-Mar-24 08:30S 32°03' E 115°45'0 0.0
2020-Mar-24 08:00S 32°03' E 115°45'0 0.0
2020-Mar-24 07:30S 32°03' E 115°45'0 0.0
2020-Mar-24 05:30S 32°03' E 115°45'0 0.0
2020-Mar-24 04:30S 32°03' E 115°45'0 0.0
2020-Mar-24 01:30S 32°03' E 115°45'0 0.0
2020-Mar-24 00:30S 32°03' E 115°45'0 0.0
2020-Mar-23 23:30S 32°03' E 115°45'3 1.3
2020-Mar-23 21:00S 32°01' E 115°42'14 9.6
2020-Mar-23 19:30S 31°56' E 115°26'7211.8
2020-Mar-23 13:22S 33°01' E 114°49'411.9
2020-Mar-23 13:00S 33°05' E 114°47'  

Dump ship's entire track history